Time;durP1;ratioP1;P1;durP2;ratioP2;P2;SDS_P1;SDS_P2;PMS_P1;PMS_P2;Temp;Humidity;BMP_temperature;BMP_pressure;BME280_temperature;BME280_humidity;BME280_pressure;Samples;Min_cycle;Max_cycle;Signal;HPM_P1;HPM_P2
2023/07/16 00:00:00;;;;;;;2.00;1.10;;;;;;;21.67;100.00;99948.44;5081725;28;20357;-61
2023/07/16 00:02:25;;;;;;;1.63;1.00;;;;;;;21.66;100.00;99936.72;5076798;28;20031;-61
2023/07/16 00:04:52;;;;;;;1.90;0.90;;;;;;;21.57;100.00;99925.78;5082921;28;20039;-61
2023/07/16 00:07:17;;;;;;;2.20;1.10;;;;;;;21.61;100.00;99924.56;5074533;28;20051;-61
2023/07/16 00:09:44;;;;;;;3.35;0.90;;;;;;;21.53;100.00;99940.56;5076826;28;20807;-61
2023/07/16 00:12:09;;;;;;;1.77;1.05;;;;;;;21.45;100.00;99964.66;5073132;28;20110;-61
2023/07/16 00:14:34;;;;;;;1.80;1.00;;;;;;;21.39;100.00;99965.09;5066768;28;20115;-61
2023/07/16 00:17:00;;;;;;;1.50;0.80;;;;;;;21.42;100.00;99940.50;5068020;28;20461;-61
2023/07/16 00:19:25;;;;;;;2.47;1.20;;;;;;;21.40;100.00;99951.47;5077264;28;20028;-61
2023/07/16 00:21:51;;;;;;;2.08;0.98;;;;;;;21.40;100.00;99970.41;5079270;28;20083;-61
2023/07/16 00:24:16;;;;;;;2.38;0.90;;;;;;;21.42;100.00;99948.63;5085751;28;20047;-61
2023/07/16 00:26:41;;;;;;;2.28;0.88;;;;;;;21.40;100.00;99962.28;5073014;28;20032;-61
2023/07/16 00:29:07;;;;;;;4.82;1.15;;;;;;;21.41;100.00;99992.91;5086910;28;20024;-61
2023/07/16 00:31:32;;;;;;;3.58;0.90;;;;;;;21.37;100.00;100005.81;5085697;28;20341;-61
2023/07/16 00:33:58;;;;;;;1.63;0.90;;;;;;;21.40;100.00;100012.84;5070982;28;20032;-61
2023/07/16 00:36:23;;;;;;;3.65;1.40;;;;;;;21.38;100.00;100009.41;5070474;28;20028;-60
2023/07/16 00:38:49;;;;;;;1.85;1.15;;;;;;;21.40;100.00;99997.47;5083555;28;20255;-61
2023/07/16 00:41:15;;;;;;;2.53;1.30;;;;;;;21.41;100.00;100001.03;5084394;28;20032;-61
2023/07/16 00:43:41;;;;;;;1.52;0.80;;;;;;;21.32;100.00;100004.44;5065616;28;20137;-61
2023/07/16 00:46:08;;;;;;;1.98;1.00;;;;;;;21.32;100.00;100015.25;5071753;28;20078;-61
2023/07/16 00:48:33;;;;;;;2.67;1.33;;;;;;;21.36;100.00;100016.75;5083656;28;20024;-61
2023/07/16 00:51:01;;;;;;;2.00;0.90;;;;;;;21.41;100.00;100011.88;5084994;28;20024;-61
2023/07/16 00:53:26;;;;;;;2.63;1.30;;;;;;;21.49;100.00;100006.72;5080216;28;20068;-61
2023/07/16 00:55:52;;;;;;;3.20;1.23;;;;;;;21.51;100.00;100007.47;5079098;28;20392;-61
2023/07/16 00:58:17;;;;;;;3.67;1.15;;;;;;;21.50;100.00;100003.06;5072803;28;20479;-61
2023/07/16 01:00:43;;;;;;;4.38;1.40;;;;;;;21.47;100.00;99984.31;5085548;28;20028;-61
2023/07/16 01:03:13;;;;;;;7.70;1.55;;;;;;;21.37;100.00;100002.25;5071076;28;20025;-60
2023/07/16 01:05:48;;;;;;;11.93;2.08;;;;;;;21.28;100.00;99986.72;5072846;28;20033;-60
2023/07/16 01:08:19;;;;;;;1.83;1.00;;;;;;;21.28;100.00;99981.31;5073810;28;20024;-61
2023/07/16 01:10:44;;;;;;;3.13;1.13;;;;;;;21.22;100.00;99973.69;5087658;28;20453;-61
2023/07/16 01:13:10;;;;;;;2.42;1.00;;;;;;;21.19;100.00;99968.47;5075404;28;20052;-61
2023/07/16 01:15:35;;;;;;;4.03;1.30;;;;;;;21.18;100.00;99966.78;5075459;28;20042;-60
2023/07/16 01:18:03;;;;;;;1.58;0.90;;;;;;;21.08;100.00;99960.34;5070053;28;20496;-61
2023/07/16 01:20:28;;;;;;;2.03;0.93;;;;;;;21.07;100.00;99964.03;5079354;28;20031;-61
2023/07/16 01:23:15;;;;;;;2.20;1.10;;;;;;;21.05;100.00;99971.41;5084443;28;20041;-61
2023/07/16 01:26:18;;;;;;;2.67;0.95;;;;;;;20.99;100.00;99980.81;5074817;28;20028;-61
2023/07/16 01:29:05;;;;;;;2.85;1.00;;;;;;;20.91;100.00;99980.50;5085586;28;20103;-61
2023/07/16 01:31:31;;;;;;;2.45;1.17;;;;;;;20.86;100.00;99988.97;5073783;28;20077;-61
2023/07/16 01:33:58;;;;;;;2.05;0.75;;;;;;;20.84;100.00;99992.75;5080150;28;20119;-61
2023/07/16 01:36:24;;;;;;;4.35;1.20;;;;;;;20.76;100.00;99993.34;5087083;28;20483;-61
2023/07/16 01:38:50;;;;;;;2.08;1.10;;;;;;;20.75;100.00;99996.16;5088886;28;20036;-61
2023/07/16 01:41:15;;;;;;;3.70;1.27;;;;;;;20.76;100.00;99982.53;5081845;28;20020;-61
2023/07/16 01:43:41;;;;;;;2.67;1.02;;;;;;;20.75;100.00;99991.63;5069122;28;20029;-61
2023/07/16 01:46:06;;;;;;;3.33;1.20;;;;;;;20.66;100.00;100002.25;5076601;28;20032;-61
2023/07/16 01:48:34;;;;;;;3.15;1.20;;;;;;;20.67;100.00;100007.53;5074559;28;20712;-62
2023/07/16 01:50:59;;;;;;;1.80;1.10;;;;;;;20.62;100.00;99998.94;5069047;28;20111;-62
2023/07/16 01:53:25;;;;;;;2.38;1.05;;;;;;;20.64;100.00;99994.25;5085884;28;20150;-62
2023/07/16 01:55:51;;;;;;;4.63;1.20;;;;;;;20.62;100.00;99996.22;5076264;28;20107;-61
2023/07/16 01:58:16;;;;;;;2.95;0.70;;;;;;;20.47;100.00;100002.75;5080091;28;20772;-61
2023/07/16 02:00:42;;;;;;;2.55;1.20;;;;;;;20.47;100.00;100010.00;5089046;28;20047;-61
2023/07/16 02:03:07;;;;;;;2.45;1.10;;;;;;;20.43;100.00;100013.88;5072354;28;20043;-61
2023/07/16 02:05:33;;;;;;;1.70;1.17;;;;;;;20.37;100.00;100000.81;5078363;28;20020;-61
2023/07/16 02:08:00;;;;;;;6.85;1.52;;;;;;;20.38;100.00;100011.50;5075655;28;20106;-61
2023/07/16 02:10:25;;;;;;;1.95;1.02;;;;;;;20.31;100.00;100029.13;5076911;28;20743;-62
2023/07/16 02:12:51;;;;;;;3.25;1.52;;;;;;;20.32;100.00;100014.69;5089030;28;20024;-62
2023/07/16 02:15:17;;;;;;;6.55;1.20;;;;;;;20.33;100.00;100015.56;5078915;28;20028;-61
2023/07/16 02:17:43;;;;;;;3.03;1.20;;;;;;;20.32;100.00;100020.06;5084938;28;20102;-61
2023/07/16 02:20:12;;;;;;;3.45;0.98;;;;;;;20.27;99.72;100043.84;5088505;28;20023;-61
2023/07/16 02:22:38;;;;;;;5.30;1.60;;;;;;;20.25;100.00;100040.41;5075246;28;20029;-62
2023/07/16 02:25:04;;;;;;;5.05;1.25;;;;;;;20.22;100.00;100051.44;5070575;28;20035;-61
2023/07/16 02:27:30;;;;;;;2.50;1.25;;;;;;;20.20;100.00;100053.38;5085015;28;20024;-60
2023/07/16 02:29:55;;;;;;;2.17;1.15;;;;;;;20.22;100.00;100037.03;5074295;28;20463;-61
2023/07/16 02:32:21;;;;;;;4.00;1.30;;;;;;;20.21;100.00;100046.13;5087391;28;20024;-60
2023/07/16 02:34:46;;;;;;;2.70;1.40;;;;;;;20.26;100.00;100047.50;5088269;28;20167;-61
2023/07/16 02:37:11;;;;;;;3.55;1.23;;;;;;;20.28;100.00;100050.97;5087481;28;20099;-61
2023/07/16 02:39:39;;;;;;;3.75;1.35;;;;;;;20.21;100.00;100057.81;5087582;28;20031;-61
2023/07/16 02:42:04;;;;;;;3.30;0.85;;;;;;;20.23;100.00;100052.31;5079549;28;20131;-62
2023/07/16 02:44:30;;;;;;;3.65;1.23;;;;;;;20.19;100.00;100046.25;5067204;28;20108;-61
2023/07/16 02:46:55;;;;;;;2.17;1.20;;;;;;;20.03;100.00;100059.06;5076093;28;20036;-62
2023/07/16 02:49:20;;;;;;;4.47;1.10;;;;;;;20.01;100.00;100079.06;5075992;28;20440;-61
2023/07/16 02:51:46;;;;;;;2.85;1.15;;;;;;;20.02;100.00;100078.06;5083832;28;20024;-61
2023/07/16 02:54:11;;;;;;;2.85;0.95;;;;;;;19.97;100.00;100072.13;5070227;28;20029;-62
2023/07/16 02:56:37;;;;;;;2.63;1.20;;;;;;;19.96;100.00;100073.97;5087129;28;20039;-61
2023/07/16 02:59:02;;;;;;;4.65;1.38;;;;;;;19.99;100.00;100065.66;5087787;28;20028;-61
2023/07/16 03:01:27;;;;;;;2.58;1.10;;;;;;;20.05;100.00;100069.78;5088427;28;20028;-61
2023/07/16 03:03:53;;;;;;;3.22;1.30;;;;;;;20.04;100.00;100071.59;5079152;28;20051;-61
2023/07/16 03:06:18;;;;;;;5.35;1.40;;;;;;;20.04;100.00;100068.03;5067972;28;20035;-61
2023/07/16 03:08:45;;;;;;;4.45;1.10;;;;;;;20.03;100.00;100066.31;5066045;28;20512;-61
2023/07/16 03:11:11;;;;;;;3.83;1.33;;;;;;;19.96;100.00;100060.47;5048831;28;20029;-61
2023/07/16 03:13:36;;;;;;;4.63;1.02;;;;;;;19.92;100.00;100058.09;5052565;28;20115;-61
2023/07/16 03:16:02;;;;;;;11.60;1.75;;;;;;;19.93;100.00;100060.69;5048800;28;20035;-61
2023/07/16 03:18:30;;;;;;;6.93;1.70;;;;;;;19.96;100.00;100059.59;5048583;28;20031;-61
2023/07/16 03:20:59;;;;;;;6.10;1.33;;;;;;;19.91;100.00;100068.03;5048451;28;20039;-60
2023/07/16 03:23:25;;;;;;;7.55;2.08;;;;;;;19.91;100.00;100065.34;5052547;28;20690;-60
2023/07/16 03:25:52;;;;;;;3.97;0.95;;;;;;;19.91;100.00;100072.56;5048532;28;20028;-61
2023/07/16 03:28:17;;;;;;;2.42;0.90;;;;;;;19.90;100.00;100077.09;5048110;28;20671;-61
2023/07/16 03:30:47;;;;;;;2.60;1.20;;;;;;;19.93;100.00;100087.69;5061930;28;20044;-60
2023/07/16 03:33:13;;;;;;;3.55;1.20;;;;;;;19.92;100.00;100088.66;5049288;28;20108;-61
2023/07/16 03:35:38;;;;;;;3.85;1.23;;;;;;;19.91;100.00;100096.88;5066328;28;20085;-60
2023/07/16 03:38:04;;;;;;;3.72;1.17;;;;;;;19.93;100.00;100106.59;5053408;28;20082;-60
2023/07/16 03:40:30;;;;;;;4.95;1.48;;;;;;;19.98;100.00;100107.16;5046814;28;20050;-60
2023/07/16 03:42:55;;;;;;;1.20;0.82;;;;;;;19.97;100.00;100108.09;5046117;28;20107;-60
2023/07/16 03:45:21;;;;;;;2.65;1.00;;;;;;;19.95;100.00;100107.34;5060347;28;20111;-60
2023/07/16 03:47:46;;;;;;;4.88;1.05;;;;;;;20.02;100.00;100108.66;5061368;28;20028;-60
2023/07/16 03:50:12;;;;;;;4.18;1.50;;;;;;;20.03;100.00;100101.41;5063521;28;20549;-60
2023/07/16 03:52:37;;;;;;;3.45;1.10;;;;;;;20.02;100.00;100103.25;5064705;28;20480;-61
2023/07/16 03:55:03;;;;;;;3.30;1.20;;;;;;;19.98;100.00;100117.06;5044810;28;20024;-60
2023/07/16 03:57:29;;;;;;;3.50;1.20;;;;;;;19.97;100.00;100116.19;5062902;28;20082;-60
2023/07/16 03:59:55;;;;;;;2.97;1.48;;;;;;;19.99;100.00;100114.25;5065677;28;20074;-60
2023/07/16 04:02:20;;;;;;;2.45;1.35;;;;;;;19.95;100.00;100112.72;5065083;28;20480;-60
2023/07/16 04:04:46;;;;;;;2.10;1.10;;;;;;;19.93;100.00;100124.63;5077019;28;20040;-61
2023/07/16 04:07:12;;;;;;;2.53;1.10;;;;;;;19.93;100.00;100130.03;5075545;28;20060;-60
2023/07/16 04:09:38;;;;;;;3.42;1.42;;;;;;;19.95;100.00;100137.03;5067156;28;20324;-60
2023/07/16 04:12:04;;;;;;;2.88;1.10;;;;;;;19.95;100.00;100134.34;5069754;28;20071;-61
2023/07/16 04:14:30;;;;;;;3.92;1.30;;;;;;;19.88;100.00;100143.84;5067371;28;20064;-60
2023/07/16 04:16:55;;;;;;;2.13;1.00;;;;;;;19.89;100.00;100150.97;5068077;28;20048;-60
2023/07/16 04:19:21;;;;;;;3.80;1.20;;;;;;;19.84;100.00;100152.25;5067167;28;20037;-61
2023/07/16 04:21:46;;;;;;;2.28;1.13;;;;;;;19.93;100.00;100157.91;5072336;28;20025;-61
2023/07/16 04:24:11;;;;;;;3.45;1.08;;;;;;;19.86;100.00;100167.38;5066220;28;20107;-60
2023/07/16 04:26:37;;;;;;;2.55;1.10;;;;;;;19.87;100.00;100173.66;5087348;28;20127;-60
2023/07/16 04:29:02;;;;;;;1.65;0.93;;;;;;;19.89;100.00;100175.25;5076074;28;20021;-60
2023/07/16 04:31:28;;;;;;;3.60;1.25;;;;;;;19.93;100.00;100174.09;5050773;28;20033;-60
2023/07/16 04:33:53;;;;;;;2.03;0.88;;;;;;;19.78;100.00;100172.44;5062464;28;20025;-60
2023/07/16 04:36:18;;;;;;;5.20;1.33;;;;;;;19.80;100.00;100183.13;5050691;28;20041;-60
2023/07/16 04:38:44;;;;;;;6.32;1.35;;;;;;;19.80;100.00;100178.59;5046735;28;20067;-60
2023/07/16 04:41:09;;;;;;;3.95;1.10;;;;;;;19.77;100.00;100178.78;5056370;28;20039;-61
2023/07/16 04:43:35;;;;;;;3.17;0.90;;;;;;;19.85;100.00;100181.84;5069086;28;20088;-60
2023/07/16 04:46:00;;;;;;;1.75;0.90;;;;;;;19.90;100.00;100185.09;5068535;28;20462;-60
2023/07/16 04:48:26;;;;;;;6.30;1.65;;;;;;;19.87;100.00;100158.31;5069066;28;20021;-60
2023/07/16 04:50:52;;;;;;;3.50;1.27;;;;;;;19.92;100.00;100177.75;5069745;28;20705;-60
2023/07/16 04:53:18;;;;;;;2.88;0.98;;;;;;;19.96;100.00;100171.19;5069576;28;20044;-60
2023/07/16 04:55:44;;;;;;;3.30;1.05;;;;;;;19.96;100.00;100179.28;5079527;28;20061;-60
2023/07/16 04:58:12;;;;;;;4.65;1.00;;;;;;;20.01;100.00;100182.53;5070559;28;20800;-60
2023/07/16 05:00:37;;;;;;;2.17;1.20;;;;;;;20.03;100.00;100185.97;5057624;28;20107;-60
2023/07/16 05:03:02;;;;;;;2.88;1.00;;;;;;;20.08;100.00;100183.81;5058773;28;20314;-60
2023/07/16 05:05:28;;;;;;;2.25;1.08;;;;;;;20.14;100.00;100178.03;5070167;28;20024;-60
2023/07/16 05:07:53;;;;;;;4.10;1.02;;;;;;;20.18;100.00;100194.91;5068727;28;20039;-60
2023/07/16 05:10:19;;;;;;;1.88;0.85;;;;;;;20.09;100.00;100200.91;5050626;28;20028;-60
2023/07/16 05:12:44;;;;;;;4.32;1.45;;;;;;;20.10;100.00;100183.75;5059604;28;20049;-60
2023/07/16 05:15:10;;;;;;;2.65;1.23;;;;;;;20.08;100.00;100189.22;5060025;28;20144;-60
2023/07/16 05:17:35;;;;;;;2.70;1.10;;;;;;;20.10;100.00;100190.00;5053964;28;20031;-60
2023/07/16 05:20:01;;;;;;;3.55;1.08;;;;;;;20.04;100.00;100193.13;5050862;28;20028;-60
2023/07/16 05:22:26;;;;;;;4.22;1.50;;;;;;;20.07;100.00;100187.50;5049378;28;20024;-59
2023/07/16 05:24:52;;;;;;;1.92;1.25;;;;;;;20.11;100.00;100199.84;5051662;28;20017;-60
2023/07/16 05:27:17;;;;;;;4.38;1.10;;;;;;;20.12;100.00;100201.56;5048571;28;20906;-60
2023/07/16 05:29:42;;;;;;;2.05;1.33;;;;;;;20.17;100.00;100204.84;5051057;28;20027;-60
2023/07/16 05:32:08;;;;;;;5.18;1.17;;;;;;;20.21;100.00;100198.28;5056092;28;20069;-60
2023/07/16 05:34:34;;;;;;;5.55;1.52;;;;;;;20.05;100.00;100175.94;5047041;28;20473;-60
2023/07/16 05:36:59;;;;;;;2.28;1.13;;;;;;;20.39;100.00;100197.00;5047021;28;20029;-60
2023/07/16 05:39:25;;;;;;;5.95;1.02;;;;;;;20.40;99.46;100206.81;5055727;28;20757;-60
2023/07/16 05:41:50;;;;;;;1.90;1.00;;;;;;;20.49;98.70;100206.16;5057047;28;20028;-60
2023/07/16 05:44:16;;;;;;;3.90;1.30;;;;;;;20.57;98.06;100203.81;5052599;28;20143;-60
2023/07/16 05:46:42;;;;;;;4.07;1.15;;;;;;;20.61;96.56;100210.72;5049256;28;20036;-59
2023/07/16 05:49:07;;;;;;;4.53;1.00;;;;;;;20.80;95.44;100208.47;5061143;28;20032;-59
2023/07/16 05:51:32;;;;;;;2.13;1.00;;;;;;;20.97;94.90;100200.97;5052023;28;20032;-60
2023/07/16 05:53:58;;;;;;;3.58;1.17;;;;;;;21.00;93.74;100200.78;5049873;28;20021;-60
2023/07/16 05:56:23;;;;;;;2.88;0.88;;;;;;;20.93;91.71;100194.91;5059635;28;20028;-60
2023/07/16 05:58:49;;;;;;;2.78;1.00;;;;;;;21.04;92.81;100196.88;5065274;28;20037;-59
2023/07/16 06:01:14;;;;;;;2.30;1.10;;;;;;;20.98;91.61;100200.00;5069860;28;20107;-59
2023/07/16 06:03:39;;;;;;;4.72;1.30;;;;;;;21.23;91.98;100197.25;5069728;28;20326;-60
2023/07/16 06:06:05;;;;;;;3.00;0.90;;;;;;;21.34;91.96;100206.31;5069835;28;20039;-60
2023/07/16 06:08:30;;;;;;;3.22;1.40;;;;;;;21.48;91.09;100206.16;5079207;28;20077;-60
2023/07/16 06:10:56;;;;;;;3.70;1.65;;;;;;;21.51;89.85;100205.06;5081081;28;20548;-60
2023/07/16 06:13:21;;;;;;;3.58;1.20;;;;;;;21.54;89.88;100210.25;5088110;28;20055;-60
2023/07/16 06:15:48;;;;;;;4.10;1.10;;;;;;;21.58;89.46;100198.22;5082765;28;20034;-60
2023/07/16 06:18:13;;;;;;;2.13;1.00;;;;;;;21.58;88.57;100195.53;5080291;28;20040;-60
2023/07/16 06:20:38;;;;;;;3.70;1.10;;;;;;;21.86;89.22;100203.34;5076015;28;20406;-59
2023/07/16 06:23:04;;;;;;;2.55;1.10;;;;;;;22.05;87.88;100204.53;5069079;28;20032;-60
2023/07/16 06:25:30;;;;;;;2.67;1.02;;;;;;;22.26;86.23;100207.41;5072230;28;20021;-60
2023/07/16 06:27:55;;;;;;;2.85;0.90;;;;;;;22.29;85.61;100215.28;5067855;28;20108;-60
2023/07/16 06:30:20;;;;;;;1.63;0.82;;;;;;;22.25;84.79;100221.06;5077491;28;20028;-60
2023/07/16 06:32:46;;;;;;;1.83;0.93;;;;;;;22.25;84.72;100216.53;5087110;28;20555;-60
2023/07/16 06:35:11;;;;;;;3.70;1.00;;;;;;;22.27;84.92;100217.28;5076952;28;20117;-60
2023/07/16 06:37:37;;;;;;;2.47;1.15;;;;;;;22.30;84.42;100225.16;5070258;28;20028;-60
2023/07/16 06:40:03;;;;;;;3.78;1.00;;;;;;;22.13;83.55;100220.19;5071289;28;20077;-59
2023/07/16 06:42:29;;;;;;;1.35;0.95;;;;;;;22.20;82.91;100226.84;5066969;28;20812;-59
2023/07/16 06:44:54;;;;;;;3.08;0.90;;;;;;;22.29;82.83;100226.13;5067704;28;20112;-60
2023/07/16 06:47:20;;;;;;;4.32;0.90;;;;;;;22.17;81.98;100224.38;5083044;28;20084;-60
2023/07/16 06:49:45;;;;;;;5.80;1.00;;;;;;;22.08;82.05;100230.50;5073686;28;20032;-59
2023/07/16 06:52:21;;;;;;;1.75;0.73;;;;;;;22.10;82.44;100220.41;5075741;28;20147;-59
2023/07/16 06:54:47;;;;;;;2.92;0.90;;;;;;;22.14;83.51;100225.47;5088799;28;20028;-59
2023/07/16 06:57:13;;;;;;;2.03;1.00;;;;;;;22.24;83.66;100231.03;5087841;28;20534;-60
2023/07/16 06:59:38;;;;;;;3.40;1.00;;;;;;;22.37;83.59;100226.44;5073384;28;20521;-59
2023/07/16 07:02:04;;;;;;;1.98;0.93;;;;;;;22.44;83.55;100233.09;5078357;28;20105;-59
2023/07/16 07:04:29;;;;;;;2.35;1.08;;;;;;;22.61;83.97;100232.66;5073713;28;20048;-60
2023/07/16 07:06:55;;;;;;;4.13;1.17;;;;;;;22.70;82.19;100234.66;5056454;28;20032;-59
2023/07/16 07:09:20;;;;;;;2.67;0.90;;;;;;;23.08;81.47;100240.59;5067483;28;20097;-59
2023/07/16 07:11:46;;;;;;;5.20;1.30;;;;;;;23.11;77.72;100240.34;5068104;28;20365;-60
2023/07/16 07:14:11;;;;;;;2.78;1.13;;;;;;;23.11;77.93;100251.22;5068357;28;20510;-60
2023/07/16 07:16:36;;;;;;;2.55;0.90;;;;;;;23.19;78.52;100243.34;5065086;28;20039;-60
2023/07/16 07:19:02;;;;;;;2.90;1.10;;;;;;;23.31;78.28;100247.78;5047905;28;20536;-59
2023/07/16 07:21:28;;;;;;;2.55;1.05;;;;;;;23.40;77.51;100241.63;5046963;28;20369;-60
2023/07/16 07:23:53;;;;;;;3.40;1.17;;;;;;;23.50;76.37;100249.00;5047170;28;20078;-59
2023/07/16 07:26:18;;;;;;;3.42;1.00;;;;;;;23.66;76.31;100258.47;5061998;28;20033;-59
2023/07/16 07:28:44;;;;;;;3.72;1.08;;;;;;;23.83;75.80;100251.66;5066021;28;20074;-59
2023/07/16 07:31:09;;;;;;;2.17;0.80;;;;;;;23.64;74.13;100259.59;5065046;28;20668;-60
2023/07/16 07:33:34;;;;;;;3.88;0.98;;;;;;;23.63;74.85;100247.88;5050026;28;20032;-59
2023/07/16 07:36:00;;;;;;;4.03;0.90;;;;;;;23.92;76.06;100250.91;5065996;28;20361;-60
2023/07/16 07:38:25;;;;;;;4.28;1.25;;;;;;;23.94;75.28;100248.88;5066891;28;20036;-60
2023/07/16 07:40:51;;;;;;;2.38;0.98;;;;;;;23.78;75.37;100251.16;5066587;28;20029;-59
2023/07/16 07:43:16;;;;;;;3.17;1.20;;;;;;;24.15;75.75;100253.41;5068046;28;20024;-60
2023/07/16 07:45:41;;;;;;;3.72;0.82;;;;;;;24.34;71.29;100259.03;5064051;28;20093;-59
2023/07/16 07:48:07;;;;;;;4.15;1.05;;;;;;;24.64;70.25;100258.25;5067761;28;20032;-60
2023/07/16 07:50:32;;;;;;;6.30;1.30;;;;;;;24.86;68.41;100254.56;5067964;28;20028;-60
2023/07/16 07:52:58;;;;;;;4.32;1.13;;;;;;;24.89;68.79;100254.28;5067171;28;20047;-60
2023/07/16 07:55:23;;;;;;;3.03;1.25;;;;;;;25.00;70.25;100256.91;5067479;28;20040;-59
2023/07/16 07:57:49;;;;;;;2.88;0.95;;;;;;;25.47;67.82;100250.88;5054150;28;20075;-60
2023/07/16 08:00:14;;;;;;;2.15;1.00;;;;;;;25.63;65.02;100243.84;5065824;28;20032;-59
2023/07/16 08:02:40;;;;;;;3.72;1.25;;;;;;;25.61;66.90;100251.34;5054223;28;20029;-59
2023/07/16 08:05:06;;;;;;;4.28;1.27;;;;;;;25.50;64.87;100243.25;5065241;28;20052;-59
2023/07/16 08:07:31;;;;;;;2.17;1.08;;;;;;;26.01;61.81;100242.22;5086106;28;20031;-60
2023/07/16 08:09:56;;;;;;;3.40;1.17;;;;;;;26.42;59.70;100241.97;5086236;28;20042;-60
2023/07/16 08:12:22;;;;;;;2.60;0.80;;;;;;;26.39;55.87;100250.44;5087395;28;20135;-60
2023/07/16 08:14:48;;;;;;;7.20;1.15;;;;;;;26.33;58.20;100248.28;5086440;28;20032;-59
2023/07/16 08:17:13;;;;;;;2.63;1.23;;;;;;;26.15;58.54;100255.44;5085994;28;20024;-60
2023/07/16 08:19:39;;;;;;;3.25;1.30;;;;;;;26.03;60.97;100256.63;5083897;28;20341;-60
2023/07/16 08:22:04;;;;;;;3.20;0.90;;;;;;;25.53;59.77;100253.91;5084588;28;20055;-59
2023/07/16 08:24:30;;;;;;;2.50;1.10;;;;;;;25.14;61.51;100262.03;5084382;28;20051;-59
2023/07/16 08:26:55;;;;;;;2.85;0.98;;;;;;;24.89;60.53;100262.44;5083210;28;20040;-59
2023/07/16 08:29:20;;;;;;;4.28;1.33;;;;;;;24.83;63.14;100255.66;5084757;28;20027;-59
2023/07/16 08:31:46;;;;;;;4.25;1.20;;;;;;;24.98;63.06;100258.91;5082001;28;20028;-60
2023/07/16 08:34:11;;;;;;;3.53;0.93;;;;;;;25.58;59.04;100261.66;5086269;28;20024;-60
2023/07/16 08:36:40;;;;;;;4.80;1.30;;;;;;;25.73;58.37;100258.38;5087269;28;20031;-60
2023/07/16 08:39:05;;;;;;;2.05;0.90;;;;;;;26.04;57.34;100244.69;5085604;28;20036;-60
2023/07/16 08:41:31;;;;;;;7.32;1.35;;;;;;;26.32;55.62;100243.84;5086425;28;20032;-60
2023/07/16 08:43:57;;;;;;;4.75;1.58;;;;;;;26.42;58.32;100248.31;5087321;28;20024;-61
2023/07/16 08:46:22;;;;;;;6.70;1.95;;;;;;;26.72;54.90;100241.84;5086338;28;20422;-60
2023/07/16 08:48:48;;;;;;;5.57;1.08;;;;;;;27.46;53.65;100250.94;5087209;28;20060;-61
2023/07/16 08:51:15;;;;;;;5.10;1.40;;;;;;;27.91;49.72;100262.78;5085418;28;20180;-61
2023/07/16 08:53:40;;;;;;;8.60;1.10;;;;;;;28.73;50.17;100258.81;5085398;28;20024;-61
2023/07/16 08:56:06;;;;;;;2.25;0.80;;;;;;;28.86;49.49;100251.06;5085093;28;20043;-61
2023/07/16 08:58:32;;;;;;;3.75;0.82;;;;;;;28.39;48.78;100253.22;5085418;28;20034;-61
2023/07/16 09:00:59;;;;;;;3.55;1.08;;;;;;;28.24;52.16;100260.25;5084974;28;20028;-61
2023/07/16 09:03:24;;;;;;;3.00;0.80;;;;;;;27.95;47.74;100254.16;5079794;28;20067;-61
2023/07/16 09:05:50;;;;;;;3.85;1.17;;;;;;;27.67;47.51;100244.22;5069990;28;20421;-61
2023/07/16 09:08:15;;;;;;;6.43;1.05;;;;;;;27.47;50.16;100242.59;5069243;28;20105;-61
2023/07/16 09:10:42;;;;;;;2.10;0.93;;;;;;;27.29;50.42;100249.88;5065281;28;20028;-61
2023/07/16 09:13:07;;;;;;;2.85;1.08;;;;;;;27.09;52.83;100251.78;5081170;28;20048;-61
2023/07/16 09:15:34;;;;;;;3.55;1.10;;;;;;;26.89;51.20;100265.63;5084392;28;20063;-61
2023/07/16 09:18:00;;;;;;;3.90;1.20;;;;;;;26.52;50.81;100259.19;5083552;28;20403;-61
2023/07/16 09:20:27;;;;;;;3.00;1.30;;;;;;;26.47;51.13;100262.38;5084948;28;20031;-61
2023/07/16 09:22:56;;;;;;;2.42;1.10;;;;;;;26.37;50.64;100227.91;5084708;28;20032;-61
2023/07/16 09:25:31;;;;;;;2.05;0.90;;;;;;;26.49;52.95;100248.59;5085630;28;20028;-61
2023/07/16 09:28:00;;;;;;;3.35;1.20;;;;;;;26.32;51.43;100252.03;5089129;28;20040;-60
2023/07/16 09:30:32;;;;;;;4.45;0.93;;;;;;;26.18;53.36;100257.94;5088356;28;20826;-60
2023/07/16 09:32:57;;;;;;;6.60;1.63;;;;;;;26.32;53.67;100263.81;5089979;28;20039;-61
2023/07/16 09:35:23;;;;;;;2.60;0.95;;;;;;;26.24;54.95;100265.53;5089663;28;20039;-61
2023/07/16 09:37:48;;;;;;;5.00;0.98;;;;;;;26.17;52.61;100264.38;5090027;28;20360;-61
2023/07/16 09:40:14;;;;;;;3.75;0.85;;;;;;;25.98;53.68;100262.44;5086921;28;20020;-60
2023/07/16 09:42:41;;;;;;;4.38;1.00;;;;;;;25.97;55.14;100268.91;5089399;28;20028;-61
2023/07/16 09:45:17;;;;;;;4.85;1.42;;;;;;;25.81;52.61;100274.88;5090110;28;20020;-61
2023/07/16 09:47:43;;;;;;;3.20;1.15;;;;;;;25.85;55.31;100264.56;5089635;28;20549;-61
2023/07/16 09:50:09;;;;;;;3.80;1.10;;;;;;;25.64;53.56;100271.97;5078035;28;20031;-61
2023/07/16 09:52:34;;;;;;;5.30;1.00;;;;;;;25.73;55.24;100271.16;5070006;28;20044;-60
2023/07/16 09:55:04;;;;;;;4.65;1.30;;;;;;;25.93;55.28;100267.44;5084028;28;20463;-61
2023/07/16 09:57:36;;;;;;;3.95;1.08;;;;;;;26.19;54.80;100262.34;5090568;28;20579;-61
2023/07/16 10:00:07;;;;;;;5.35;1.17;;;;;;;26.36;56.07;100272.56;5089807;28;20051;-61
2023/07/16 10:02:34;;;;;;;2.42;1.02;;;;;;;26.49;54.13;100270.41;5089488;28;20042;-61
2023/07/16 10:04:59;;;;;;;2.85;1.08;;;;;;;26.46;51.91;100270.66;5086829;28;20044;-61
2023/07/16 10:07:26;;;;;;;3.80;1.42;;;;;;;26.52;50.88;100271.00;5069859;28;20051;-61
2023/07/16 10:09:56;;;;;;;5.13;1.00;;;;;;;26.35;50.77;100281.75;5076221;28;20432;-61
2023/07/16 10:12:25;;;;;;;5.07;1.45;;;;;;;26.29;48.55;100275.00;5066049;28;20032;-61
2023/07/16 10:14:52;;;;;;;6.55;1.45;;;;;;;26.31;47.49;100263.94;5068092;28;20512;-61
2023/07/16 10:17:20;;;;;;;5.07;0.95;;;;;;;26.21;48.23;100254.91;5066689;28;20476;-61
2023/07/16 10:19:59;;;;;;;4.32;1.10;;;;;;;26.36;48.25;100269.84;5054025;28;20041;-61
2023/07/16 10:22:37;;;;;;;2.75;0.90;;;;;;;26.57;47.24;100267.81;5046126;28;20031;-61
2023/07/16 10:25:08;;;;;;;4.80;1.33;;;;;;;26.89;48.57;100274.69;5061466;28;20009;-61
2023/07/16 10:27:34;;;;;;;3.08;0.90;;;;;;;27.15;47.33;100269.44;5046668;28;20039;-61
2023/07/16 10:30:02;;;;;;;3.85;0.88;;;;;;;27.15;47.67;100258.50;5053900;28;20024;-62
2023/07/16 10:32:29;;;;;;;2.63;1.00;;;;;;;27.00;46.33;100254.56;5056588;28;20173;-62
2023/07/16 10:34:55;;;;;;;4.68;1.00;;;;;;;26.75;46.21;100255.19;5047567;28;20033;-61
2023/07/16 10:37:21;;;;;;;4.90;1.25;;;;;;;26.86;48.31;100257.72;5064653;28;20028;-61
2023/07/16 10:39:51;;;;;;;4.13;1.08;;;;;;;27.00;48.86;100260.00;5068676;28;20035;-61
2023/07/16 10:42:17;;;;;;;3.47;0.90;;;;;;;27.41;50.55;100254.13;5068955;28;20555;-61
2023/07/16 10:44:43;;;;;;;2.60;1.02;;;;;;;27.63;47.62;100245.53;5067773;28;20040;-61
2023/07/16 10:47:19;;;;;;;3.05;0.90;;;;;;;28.05;46.41;100257.66;5069011;28;20812;-62
2023/07/16 10:49:44;;;;;;;3.45;1.38;;;;;;;27.83;46.67;100244.41;5069013;28;20036;-61
2023/07/16 10:52:10;;;;;;;4.50;1.00;;;;;;;27.77;46.61;100253.22;5068816;28;20029;-62
2023/07/16 10:54:35;;;;;;;3.70;0.88;;;;;;;27.79;45.92;100250.34;5067346;28;20544;-62
2023/07/16 10:57:01;;;;;;;1.77;0.82;;;;;;;27.77;44.90;100255.09;5059340;28;20029;-63
2023/07/16 10:59:26;;;;;;;4.90;1.27;;;;;;;28.08;46.36;100254.63;5049846;28;20040;-62
2023/07/16 11:01:52;;;;;;;3.35;1.17;;;;;;;28.12;44.83;100252.44;5061687;28;20032;-62
2023/07/16 11:04:17;;;;;;;4.43;1.20;;;;;;;28.01;45.04;100248.03;5063968;28;20051;-62
2023/07/16 11:06:42;;;;;;;3.85;1.05;;;;;;;27.81;45.38;100249.16;5070511;28;20455;-62
2023/07/16 11:09:08;;;;;;;3.80;1.00;;;;;;;27.68;46.70;100256.84;5064942;28;20039;-62
2023/07/16 11:11:34;;;;;;;4.43;1.40;;;;;;;27.55;46.44;100256.34;5079534;28;20497;-62
2023/07/16 11:14:00;;;;;;;3.92;1.25;;;;;;;28.25;44.57;100255.66;5065425;28;20073;-63
2023/07/16 11:16:25;;;;;;;3.25;1.20;;;;;;;28.57;46.25;100250.47;5075970;28;20035;-62